Time;durP1;ratioP1;P1;durP2;ratioP2;P2;SDS_P1;SDS_P2;PMS_P1;PMS_P2;Temp;Humidity;BMP_temperature;BMP_pressure;BME280_temperature;BME280_humidity;BME280_pressure;Samples;Min_cycle;Max_cycle;Signal;HPM_P1;HPM_P2
2024/01/24 00:01:37;;;;;;;26.88;4.15;;;11.20;99.90;;;;;;5087003;28;20395;-72
2024/01/24 00:04:06;;;;;;;17.52;3.50;;;11.20;99.90;;;;;;5094449;28;20058;-73
2024/01/24 00:06:33;;;;;;;26.65;4.88;;;11.20;99.90;;;;;;5085738;28;20049;-70
2024/01/24 00:09:01;;;;;;;33.17;5.43;;;11.20;99.90;;;;;;5070651;28;20412;-69
2024/01/24 00:11:29;;;;;;;29.50;5.25;;;11.20;99.90;;;;;;5068561;28;20036;-72
2024/01/24 00:13:57;;;;;;;26.40;6.80;;;11.20;99.90;;;;;;5083735;28;20070;-71
2024/01/24 00:16:25;;;;;;;33.67;5.40;;;11.20;99.90;;;;;;5088999;28;20518;-71
2024/01/24 00:18:56;;;;;;;38.42;5.93;;;11.20;99.90;;;;;;5087584;28;20052;-69
2024/01/24 00:21:24;;;;;;;24.33;4.43;;;11.20;99.90;;;;;;5086245;28;20044;-65
2024/01/24 00:23:51;;;;;;;26.17;5.07;;;11.20;99.90;;;;;;5090643;28;20526;-65
2024/01/24 00:26:19;;;;;;;31.98;5.15;;;11.20;99.90;;;;;;5099170;28;20044;-64
2024/01/24 00:28:47;;;;;;;35.88;4.32;;;11.20;99.90;;;;;;5078798;28;20043;-62
2024/01/24 00:31:14;;;;;;;44.05;5.78;;;11.10;99.90;;;;;;5088651;28;20048;-65
2024/01/24 00:33:42;;;;;;;40.72;7.20;;;11.10;99.90;;;;;;5091594;28;20075;-63
2024/01/24 00:36:10;;;;;;;42.25;6.22;;;11.00;99.90;;;;;;5088419;28;20510;-65
2024/01/24 00:38:37;;;;;;;18.40;3.38;;;10.90;99.90;;;;;;5077547;28;20044;-63
2024/01/24 00:41:05;;;;;;;26.38;4.07;;;10.90;99.90;;;;;;5088769;28;20406;-61
2024/01/24 00:43:33;;;;;;;15.10;3.75;;;11.00;99.90;;;;;;5091659;28;20063;-61
2024/01/24 00:46:00;;;;;;;15.48;3.30;;;11.10;99.90;;;;;;5087269;28;20063;-62
2024/01/24 00:48:31;;;;;;;19.88;3.55;;;11.20;99.90;;;;;;5087275;28;20403;-62
2024/01/24 00:50:58;;;;;;;23.40;4.07;;;11.20;99.90;;;;;;5088725;28;20040;-62
2024/01/24 00:53:29;;;;;;;13.93;3.53;;;11.20;99.90;;;;;;5081844;28;20153;-63
2024/01/24 00:55:56;;;;;;;20.63;3.38;;;11.20;99.90;;;;;;5088039;28;20036;-63
2024/01/24 00:58:24;;;;;;;21.98;3.83;;;11.20;99.90;;;;;;5086969;28;20411;-62
2024/01/24 01:00:52;;;;;;;16.92;3.63;;;11.20;99.90;;;;;;5088055;28;20044;-63
2024/01/24 01:03:19;;;;;;;20.77;3.33;;;11.20;99.90;;;;;;5086268;28;20048;-66
2024/01/24 01:05:47;;;;;;;17.30;2.97;;;11.20;99.90;;;;;;5083826;28;20083;-62
2024/01/24 01:08:15;;;;;;;18.92;3.22;;;11.20;99.90;;;;;;5079390;28;20051;-63
2024/01/24 01:10:42;;;;;;;20.70;2.72;;;11.30;99.90;;;;;;5088241;28;20044;-64
2024/01/24 01:13:10;;;;;;;23.92;3.63;;;11.30;99.90;;;;;;5091776;28;20531;-62
2024/01/24 01:15:41;;;;;;;32.78;5.93;;;11.30;99.90;;;;;;5087083;28;20105;-61
2024/01/24 01:18:09;;;;;;;15.35;3.00;;;11.20;99.90;;;;;;5078851;28;20052;-62
2024/01/24 01:20:37;;;;;;;19.98;4.25;;;11.30;99.90;;;;;;5087743;28;20039;-62
2024/01/24 01:23:04;;;;;;;19.17;3.33;;;11.10;99.90;;;;;;5083296;28;20055;-63
2024/01/24 01:25:32;;;;;;;16.40;3.60;;;11.10;99.90;;;;;;5078031;28;20047;-62
2024/01/24 01:28:00;;;;;;;20.70;3.03;;;11.10;99.90;;;;;;5075196;28;20051;-63
2024/01/24 01:30:27;;;;;;;15.30;3.30;;;11.10;99.90;;;;;;5069298;28;20044;-63
2024/01/24 01:32:55;;;;;;;18.02;3.88;;;11.00;99.90;;;;;;5078813;28;20040;-63
2024/01/24 01:35:23;;;;;;;18.27;2.42;;;11.00;99.90;;;;;;5076709;28;20047;-65
2024/01/24 01:37:51;;;;;;;23.40;4.20;;;11.00;99.90;;;;;;5078894;28;20067;-61
2024/01/24 01:40:18;;;;;;;34.72;4.55;;;11.00;99.90;;;;;;5069838;28;20059;-62
2024/01/24 01:42:46;;;;;;;22.33;4.43;;;11.00;99.90;;;;;;5071436;28;20051;-62
2024/01/24 01:45:14;;;;;;;21.75;4.20;;;10.90;99.90;;;;;;5073441;28;20064;-63
2024/01/24 01:47:43;;;;;;;23.55;3.80;;;10.90;99.90;;;;;;5070721;28;20053;-64
2024/01/24 01:50:16;;;;;;;19.73;3.83;;;10.70;99.90;;;;;;5077570;28;20052;-62
2024/01/24 01:52:45;;;;;;;29.75;4.25;;;10.70;99.90;;;;;;5072987;28;20043;-63
2024/01/24 01:55:14;;;;;;;25.83;4.07;;;10.70;99.90;;;;;;5071380;28;20064;-63
2024/01/24 01:57:43;;;;;;;19.05;4.15;;;10.60;99.90;;;;;;5070001;28;20056;-63
2024/01/24 02:00:20;;;;;;;20.30;3.28;;;10.50;99.90;;;;;;5067573;28;20056;-63
2024/01/24 02:02:49;;;;;;;19.95;3.75;;;10.50;99.90;;;;;;5080801;28;20044;-63
2024/01/24 02:05:17;;;;;;;19.30;2.33;;;10.50;99.90;;;;;;5081861;28;20044;-63
2024/01/24 02:07:46;;;;;;;17.67;2.53;;;10.50;99.90;;;;;;5076148;28;20051;-63
2024/01/24 02:10:14;;;;;;;18.05;3.03;;;10.40;99.90;;;;;;5076787;28;20047;-65
2024/01/24 02:12:42;;;;;;;28.35;4.30;;;10.40;99.90;;;;;;5086466;28;20058;-62
2024/01/24 02:15:10;;;;;;;19.60;2.92;;;10.40;99.90;;;;;;5089999;28;20506;-62
2024/01/24 02:17:38;;;;;;;24.15;2.92;;;10.30;99.90;;;;;;5086705;28;20044;-63
2024/01/24 02:20:09;;;;;;;26.25;4.68;;;10.30;99.90;;;;;;5098573;28;20044;-63
2024/01/24 02:22:37;;;;;;;24.40;3.53;;;10.30;99.90;;;;;;5072293;28;20036;-64
2024/01/24 02:25:05;;;;;;;34.35;4.45;;;10.30;99.90;;;;;;5085785;28;20048;-62
2024/01/24 02:27:33;;;;;;;27.27;3.53;;;10.30;99.90;;;;;;5074885;28;20040;-63
2024/01/24 02:30:01;;;;;;;32.50;4.70;;;10.20;99.90;;;;;;5086648;28;20056;-63
2024/01/24 02:32:28;;;;;;;21.02;4.53;;;10.10;99.90;;;;;;5085781;28;20028;-62
2024/01/24 02:34:56;;;;;;;25.17;4.38;;;10.00;99.90;;;;;;5091484;28;20118;-63
2024/01/24 02:37:24;;;;;;;22.20;3.10;;;10.00;99.90;;;;;;5080212;28;20361;-66
2024/01/24 02:39:51;;;;;;;25.33;4.20;;;10.00;99.90;;;;;;5084457;28;20040;-64
2024/01/24 02:42:19;;;;;;;23.80;3.53;;;10.00;99.90;;;;;;5075010;28;20048;-66
2024/01/24 02:44:46;;;;;;;26.73;4.60;;;10.00;99.90;;;;;;5074777;28;20059;-67
2024/01/24 02:47:14;;;;;;;19.42;3.13;;;10.00;99.90;;;;;;5086935;28;20079;-63
2024/01/24 02:49:42;;;;;;;25.65;3.70;;;10.10;99.90;;;;;;5075150;28;20055;-65
2024/01/24 02:52:10;;;;;;;19.02;2.58;;;10.20;99.90;;;;;;5077709;28;20059;-66
2024/01/24 02:54:38;;;;;;;13.70;3.15;;;10.30;99.90;;;;;;5091854;28;20067;-70
2024/01/24 02:57:05;;;;;;;18.08;4.22;;;10.40;99.90;;;;;;5081124;28;20045;-68
2024/01/24 02:59:33;;;;;;;32.40;3.72;;;10.40;99.90;;;;;;5091427;28;20515;-70
2024/01/24 03:02:01;;;;;;;16.02;3.20;;;10.50;99.90;;;;;;5088674;28;20055;-67
2024/01/24 03:04:28;;;;;;;18.58;3.08;;;10.50;99.90;;;;;;5090820;28;20044;-72
2024/01/24 03:06:56;;;;;;;17.58;3.42;;;10.50;99.90;;;;;;5084217;28;20048;-73
2024/01/24 03:09:24;;;;;;;13.48;2.42;;;10.50;99.90;;;;;;5090292;28;20060;-64
2024/01/24 03:11:52;;;;;;;17.83;3.22;;;10.60;99.90;;;;;;5079979;28;20519;-73
2024/01/24 03:14:21;;;;;;;15.32;2.60;;;10.50;99.90;;;;;;5087547;28;20043;-73
2024/01/24 03:16:48;;;;;;;25.47;3.83;;;10.50;99.90;;;;;;5088312;28;20040;-73
2024/01/24 03:19:16;;;;;;;21.65;2.60;;;10.50;99.90;;;;;;5072915;28;20289;-63
2024/01/24 03:21:44;;;;;;;16.60;2.78;;;10.40;99.90;;;;;;5077341;28;20059;-64
2024/01/24 03:24:11;;;;;;;22.25;3.65;;;10.40;99.90;;;;;;5091428;28;20499;-64
2024/01/24 03:26:39;;;;;;;29.15;4.22;;;10.40;99.90;;;;;;5086933;28;20040;-63
2024/01/24 03:29:07;;;;;;;22.88;3.05;;;10.30;99.90;;;;;;5079537;28;20056;-63
2024/01/24 03:31:34;;;;;;;27.83;3.25;;;10.30;99.90;;;;;;5077297;28;20044;-63
2024/01/24 03:34:02;;;;;;;15.98;2.67;;;10.30;99.90;;;;;;5085677;28;20507;-63
2024/01/24 03:36:30;;;;;;;21.52;3.50;;;10.20;99.90;;;;;;5076298;28;20044;-63
2024/01/24 03:38:58;;;;;;;13.32;2.88;;;10.10;99.90;;;;;;5077570;28;20088;-62
2024/01/24 03:41:25;;;;;;;24.75;3.92;;;10.10;99.90;;;;;;5091468;28;20071;-66
2024/01/24 03:43:53;;;;;;;18.67;2.55;;;10.10;99.90;;;;;;5085269;28;20419;-69
2024/01/24 03:46:20;;;;;;;19.13;3.75;;;10.10;99.90;;;;;;5079967;28;20047;-72
2024/01/24 03:48:48;;;;;;;12.52;3.03;;;10.00;99.90;;;;;;5085179;28;20071;-68
2024/01/24 03:51:16;;;;;;;18.95;3.25;;;10.00;99.90;;;;;;5087807;28;20036;-73
2024/01/24 03:53:44;;;;;;;23.75;3.25;;;10.00;99.90;;;;;;5073278;28;20049;-72
2024/01/24 03:56:11;;;;;;;19.40;3.30;;;9.90;99.90;;;;;;5074883;28;20044;-72
2024/01/24 03:58:39;;;;;;;23.35;3.05;;;9.90;99.90;;;;;;5076318;28;20063;-73
2024/01/24 04:01:07;;;;;;;20.25;3.25;;;9.90;99.90;;;;;;5072245;28;20044;-70
2024/01/24 04:03:34;;;;;;;21.05;3.92;;;9.90;99.90;;;;;;5074252;28;20055;-69
2024/01/24 04:06:02;;;;;;;16.58;3.03;;;9.80;99.90;;;;;;5088371;28;20059;-64
2024/01/24 04:08:30;;;;;;;22.30;3.58;;;9.80;99.90;;;;;;5088638;28;20495;-63
2024/01/24 04:10:57;;;;;;;23.38;2.40;;;9.80;99.90;;;;;;5090284;28;20060;-63
2024/01/24 04:13:25;;;;;;;33.75;3.03;;;9.80;99.90;;;;;;5090969;28;20048;-62
2024/01/24 04:15:53;;;;;;;24.70;2.83;;;9.80;99.90;;;;;;5092285;28;20047;-62
2024/01/24 04:18:20;;;;;;;18.60;2.80;;;9.80;99.90;;;;;;5073391;28;20424;-63
2024/01/24 04:20:48;;;;;;;14.60;2.45;;;9.80;99.90;;;;;;5091917;28;20052;-65
2024/01/24 04:23:16;;;;;;;20.00;3.63;;;9.80;99.90;;;;;;5091797;28;20055;-62
2024/01/24 04:25:43;;;;;;;13.65;2.40;;;9.80;99.90;;;;;;5090588;28;20051;-63
2024/01/24 04:28:11;;;;;;;18.85;3.17;;;9.80;99.90;;;;;;5085291;28;20052;-62
2024/01/24 04:30:38;;;;;;;16.45;3.28;;;9.70;99.90;;;;;;5091991;28;20055;-63
2024/01/24 04:33:07;;;;;;;17.58;3.83;;;9.70;99.90;;;;;;5106610;28;20043;-64
2024/01/24 04:35:35;;;;;;;18.58;2.63;;;9.60;99.90;;;;;;5112377;28;20769;-62
2024/01/24 04:38:02;;;;;;;19.17;2.20;;;9.60;99.90;;;;;;5112301;28;20039;-62
2024/01/24 04:40:30;;;;;;;15.77;3.22;;;9.70;99.90;;;;;;5111168;28;20050;-64
2024/01/24 04:42:58;;;;;;;25.48;4.60;;;9.70;99.90;;;;;;5074402;28;20045;-63
2024/01/24 04:45:26;;;;;;;21.60;3.03;;;9.70;99.90;;;;;;5071652;28;20389;-63
2024/01/24 04:47:53;;;;;;;25.27;3.40;;;9.60;99.90;;;;;;5090256;28;20048;-63
2024/01/24 04:50:21;;;;;;;27.42;4.60;;;9.60;99.90;;;;;;5090515;28;20523;-62
2024/01/24 04:52:49;;;;;;;19.52;2.53;;;9.50;99.90;;;;;;5090098;28;20047;-64
2024/01/24 04:55:17;;;;;;;18.95;4.00;;;9.50;99.90;;;;;;5091290;28;20403;-62
2024/01/24 04:57:45;;;;;;;14.90;3.67;;;9.50;99.90;;;;;;5091652;28;20051;-63
2024/01/24 05:00:13;;;;;;;25.90;3.70;;;9.50;99.90;;;;;;5090576;28;20040;-62
2024/01/24 05:02:41;;;;;;;21.80;2.83;;;9.50;99.90;;;;;;5103204;28;20487;-62
2024/01/24 05:05:08;;;;;;;23.77;3.67;;;9.50;99.90;;;;;;5100437;28;20420;-63
2024/01/24 05:07:36;;;;;;;19.17;2.72;;;9.40;99.90;;;;;;5088192;28;20059;-63
2024/01/24 05:10:04;;;;;;;27.13;3.58;;;9.40;99.90;;;;;;5091045;28;20056;-62
2024/01/24 05:12:32;;;;;;;25.50;3.58;;;9.40;99.90;;;;;;5091536;28;20048;-62
2024/01/24 05:15:00;;;;;;;18.80;3.10;;;9.40;99.90;;;;;;5087384;28;20056;-63
2024/01/24 05:17:28;;;;;;;18.13;2.90;;;9.40;99.90;;;;;;5091014;28;20383;-62
2024/01/24 05:19:56;;;;;;;29.83;4.25;;;9.30;99.90;;;;;;5091475;28;20516;-62
2024/01/24 05:22:23;;;;;;;18.73;3.30;;;9.20;99.90;;;;;;5091354;28;20067;-63
2024/01/24 05:24:51;;;;;;;26.90;3.42;;;9.20;99.90;;;;;;5091371;28;20044;-62
2024/01/24 05:27:19;;;;;;;24.83;3.38;;;9.20;99.90;;;;;;5091396;28;20048;-62
2024/01/24 05:29:47;;;;;;;21.98;3.20;;;9.20;99.90;;;;;;5091228;28;20044;-63
2024/01/24 05:32:15;;;;;;;16.08;2.90;;;9.20;99.90;;;;;;5100462;28;20047;-63
2024/01/24 05:34:42;;;;;;;18.50;3.80;;;9.20;99.90;;;;;;5100290;28;20047;-68
2024/01/24 05:37:10;;;;;;;18.20;2.75;;;9.30;99.90;;;;;;5090391;28;20054;-63
2024/01/24 05:39:37;;;;;;;22.48;3.35;;;9.40;99.90;;;;;;5092930;28;20074;-66
2024/01/24 05:42:05;;;;;;;24.50;4.80;;;9.40;99.90;;;;;;5095282;28;20396;-63
2024/01/24 05:44:33;;;;;;;18.20;3.85;;;9.40;99.90;;;;;;5095280;28;20495;-62
2024/01/24 05:47:00;;;;;;;17.65;3.00;;;9.50;99.90;;;;;;5092474;28;20048;-63
2024/01/24 05:49:34;;;;;;;;;;;9.40;99.90;;;;;;5070834;28;20048;-63
2024/01/24 05:52:02;;;;;;;22.75;3.47;;;9.40;99.90;;;;;;5071379;28;20391;-68
2024/01/24 05:54:30;;;;;;;16.38;3.55;;;9.40;99.90;;;;;;5071243;28;20060;-73
2024/01/24 05:56:57;;;;;;;34.45;3.92;;;9.30;99.90;;;;;;5081569;28;20047;-73
2024/01/24 05:59:25;;;;;;;21.95;2.80;;;9.30;99.90;;;;;;5091234;28;20051;-65
2024/01/24 06:01:52;;;;;;;17.42;2.42;;;9.20;99.90;;;;;;5088527;28;20055;-73
2024/01/24 06:04:20;;;;;;;19.70;3.38;;;9.20;99.90;;;;;;5075567;28;20044;-69
2024/01/24 06:06:48;;;;;;;24.25;3.95;;;9.10;99.90;;;;;;5075897;28;20052;-63
2024/01/24 06:09:20;;;;;;;26.58;4.15;;;9.10;99.90;;;;;;5092012;28;20052;-72
2024/01/24 06:11:48;;;;;;;14.07;3.42;;;9.10;99.90;;;;;;5076540;28;20047;-62
2024/01/24 06:14:16;;;;;;;19.77;3.08;;;9.10;99.90;;;;;;5106152;28;20070;-63
2024/01/24 06:16:44;;;;;;;26.33;3.85;;;9.10;99.90;;;;;;5095042;28;20036;-63
2024/01/24 06:19:11;;;;;;;20.55;2.97;;;9.10;99.90;;;;;;5091136;28;20048;-64
2024/01/24 06:21:39;;;;;;;17.42;3.20;;;9.10;99.90;;;;;;5082114;28;20056;-62
2024/01/24 06:24:07;;;;;;;24.67;3.45;;;9.10;99.90;;;;;;5092940;28;20055;-64
2024/01/24 06:26:35;;;;;;;17.70;3.92;;;9.10;99.90;;;;;;5087713;28;20518;-65
2024/01/24 06:29:03;;;;;;;29.52;3.97;;;9.10;99.90;;;;;;5087515;28;20079;-63
2024/01/24 06:31:30;;;;;;;21.23;4.25;;;9.00;99.90;;;;;;5073334;28;20040;-65
2024/01/24 06:33:59;;;;;;;19.38;3.50;;;9.00;99.90;;;;;;5076335;28;20056;-63
2024/01/24 06:36:28;;;;;;;19.48;3.95;;;8.90;99.90;;;;;;5070923;28;20056;-64
2024/01/24 06:38:56;;;;;;;22.23;3.35;;;8.90;99.90;;;;;;5104807;28;20060;-63
2024/01/24 06:41:24;;;;;;;36.60;4.35;;;8.90;99.90;;;;;;5109885;28;20044;-63
2024/01/24 06:43:52;;;;;;;25.58;3.10;;;8.90;99.90;;;;;;5100824;28;20043;-63
2024/01/24 06:46:19;;;;;;;24.65;3.35;;;8.80;99.90;;;;;;5087382;28;20525;-63
2024/01/24 06:48:47;;;;;;;27.88;3.28;;;8.70;99.90;;;;;;5101209;28;20056;-63
2024/01/24 06:51:15;;;;;;;20.67;3.28;;;8.70;99.90;;;;;;5102939;28;20078;-62
2024/01/24 06:53:43;;;;;;;33.17;3.85;;;8.70;99.90;;;;;;5086853;28;20070;-64
2024/01/24 06:56:11;;;;;;;26.65;3.75;;;8.70;99.90;;;;;;5087287;28;20048;-65
2024/01/24 06:58:40;;;;;;;30.45;3.92;;;8.60;99.90;;;;;;5084838;28;20044;-64
2024/01/24 07:01:08;;;;;;;25.83;4.03;;;8.60;99.90;;;;;;5073558;28;20056;-63
2024/01/24 07:03:36;;;;;;;31.25;5.55;;;8.60;99.90;;;;;;5090728;28;20375;-64
2024/01/24 07:06:05;;;;;;;23.58;4.10;;;8.50;99.90;;;;;;5084275;28;20059;-64
2024/01/24 07:08:34;;;;;;;16.52;2.25;;;8.50;99.90;;;;;;5084054;28;20048;-65
2024/01/24 07:11:05;;;;;;;22.52;3.65;;;8.50;99.90;;;;;;5087907;28;20065;-64
2024/01/24 07:13:34;;;;;;;26.92;4.28;;;8.50;99.90;;;;;;5086136;28;20056;-67
2024/01/24 07:16:04;;;;;;;30.35;4.07;;;8.40;99.90;;;;;;5083060;28;20044;-62
2024/01/24 07:18:31;;;;;;;19.10;3.35;;;8.40;99.90;;;;;;5088519;28;20048;-62
2024/01/24 07:21:00;;;;;;;18.73;3.00;;;8.40;99.90;;;;;;5089458;28;20066;-63
2024/01/24 07:23:28;;;;;;;15.43;3.05;;;8.40;99.90;;;;;;5094400;28;20032;-63
2024/01/24 07:25:55;;;;;;;32.08;4.20;;;8.40;99.90;;;;;;5084888;28;20496;-65
2024/01/24 07:28:23;;;;;;;24.23;3.03;;;8.50;99.90;;;;;;5085843;28;20040;-63
2024/01/24 07:30:50;;;;;;;23.50;3.42;;;8.40;99.90;;;;;;5089762;28;20510;-63
2024/01/24 07:33:18;;;;;;;24.20;3.28;;;8.30;99.90;;;;;;5100742;28;20046;-62
2024/01/24 07:35:50;;;;;;;16.92;3.70;;;8.30;99.90;;;;;;5109399;28;20039;-67
2024/01/24 07:38:18;;;;;;;31.98;3.75;;;8.20;99.90;;;;;;5085560;28;20040;-67
2024/01/24 07:40:46;;;;;;;24.15;3.38;;;8.20;99.90;;;;;;5072923;28;20055;-63
2024/01/24 07:43:14;;;;;;;18.08;2.72;;;8.10;99.90;;;;;;5081280;28;20498;-71
2024/01/24 07:45:43;;;;;;;23.73;2.80;;;8.10;99.90;;;;;;5089665;28;20506;-71
2024/01/24 07:48:14;;;;;;;21.70;3.47;;;8.10;99.90;;;;;;5089212;28;20055;-72
2024/01/24 07:50:42;;;;;;;26.52;3.20;;;8.10;99.90;;;;;;5089328;28;20044;-72
2024/01/24 07:53:10;;;;;;;9.13;2.38;;;8.10;99.90;;;;;;5087163;28;20048;-72
2024/01/24 07:55:37;;;;;;;24.70;3.67;;;8.10;99.90;;;;;;5069167;28;20048;-73
2024/01/24 07:58:23;;;;;;;16.83;2.33;;;8.10;99.90;;;;;;5085700;28;20394;-64
2024/01/24 08:00:51;;;;;;;26.13;3.33;;;8.10;99.90;;;;;;5088504;28;20048;-64
2024/01/24 08:03:19;;;;;;;23.25;3.47;;;8.20;99.90;;;;;;5089719;28;20056;-69
2024/01/24 08:05:47;;;;;;;26.52;3.20;;;8.20;99.90;;;;;;5085979;28;20048;-64
2024/01/24 08:08:15;;;;;;;22.45;4.03;;;8.30;99.90;;;;;;5083445;28;20055;-64
2024/01/24 08:10:43;;;;;;;28.92;4.30;;;8.30;99.90;;;;;;5086068;28;20040;-68
2024/01/24 08:13:11;;;;;;;21.10;3.17;;;8.40;99.90;;;;;;5084394;28;20063;-72
2024/01/24 08:15:39;;;;;;;19.30;2.97;;;8.40;99.90;;;;;;5088869;28;20490;-70
2024/01/24 08:18:07;;;;;;;31.02;3.42;;;8.40;99.90;;;;;;5087493;28;20045;-62
2024/01/24 08:20:35;;;;;;;36.08;4.07;;;8.40;99.90;;;;;;5088833;28;20055;-71
2024/01/24 08:23:03;;;;;;;21.15;3.28;;;8.40;99.90;;;;;;5083341;28;20062;-63
2024/01/24 08:25:31;;;;;;;23.05;3.10;;;8.30;99.90;;;;;;5088848;28;20376;-63
2024/01/24 08:27:58;;;;;;;19.83;2.90;;;8.40;99.90;;;;;;5087685;28;20530;-64
2024/01/24 08:30:26;;;;;;;20.95;3.35;;;8.40;99.90;;;;;;5088843;28;20051;-64
2024/01/24 08:32:54;;;;;;;28.10;3.35;;;8.40;99.90;;;;;;5100794;28;20533;-63
2024/01/24 08:35:22;;;;;;;21.52;3.60;;;8.50;99.90;;;;;;5088807;28;20487;-63
2024/01/24 08:37:49;;;;;;;19.02;2.92;;;8.50;99.90;;;;;;5082435;28;20036;-66
2024/01/24 08:40:18;;;;;;;13.48;2.90;;;8.50;99.90;;;;;;5068337;28;20507;-64
2024/01/24 08:42:46;;;;;;;19.30;3.42;;;8.60;99.90;;;;;;5079298;28;20048;-66
2024/01/24 08:45:13;;;;;;;20.70;3.85;;;8.60;99.90;;;;;;5085248;28;20040;-63
2024/01/24 08:47:41;;;;;;;17.88;2.90;;;8.60;99.90;;;;;;5085489;28;20056;-62
2024/01/24 08:50:09;;;;;;;9.60;2.53;;;8.60;99.90;;;;;;5081649;28;20487;-65
2024/01/24 08:52:36;;;;;;;19.40;4.05;;;8.60;99.90;;;;;;5071019;28;20044;-66
2024/01/24 08:55:08;;;;;;;15.85;2.22;;;8.50;99.90;;;;;;5086476;28;20675;-62
2024/01/24 08:57:36;;;;;;;16.70;2.53;;;8.60;99.90;;;;;;5087447;28;20407;-63
2024/01/24 09:00:07;;;;;;;27.98;3.50;;;8.60;99.90;;;;;;5068541;28;20056;-63
2024/01/24 09:02:35;;;;;;;25.42;3.38;;;8.60;99.90;;;;;;5090529;28;20067;-63
2024/01/24 09:05:05;;;;;;;22.95;2.88;;;8.60;99.90;;;;;;5069952;28;20052;-66
2024/01/24 09:07:33;;;;;;;18.42;3.63;;;8.60;99.90;;;;;;5074443;28;20522;-63
2024/01/24 09:10:02;;;;;;;25.15;2.95;;;8.60;99.90;;;;;;5068012;28;20045;-69
2024/01/24 09:12:30;;;;;;;17.75;3.42;;;8.70;99.90;;;;;;5073096;28;20543;-65
2024/01/24 09:14:58;;;;;;;15.27;2.88;;;8.70;99.90;;;;;;5106717;28;20035;-62
2024/01/24 09:17:26;;;;;;;22.45;2.42;;;8.70;99.90;;;;;;5090209;28;20044;-63
2024/01/24 09:19:54;;;;;;;27.35;4.10;;;8.80;99.90;;;;;;5088085;28;20043;-63
2024/01/24 09:22:22;;;;;;;26.45;3.75;;;8.80;99.90;;;;;;5087790;28;20054;-62
2024/01/24 09:24:50;;;;;;;20.05;3.88;;;8.90;99.90;;;;;;5085484;28;20048;-64
2024/01/24 09:27:18;;;;;;;19.88;3.10;;;8.90;99.90;;;;;;5087173;28;20048;-65
2024/01/24 09:29:46;;;;;;;18.85;3.45;;;8.90;99.90;;;;;;5087759;28;20044;-68
2024/01/24 09:32:13;;;;;;;20.65;3.15;;;9.00;99.90;;;;;;5067283;28;20048;-68
2024/01/24 09:34:42;;;;;;;23.23;2.72;;;8.90;99.90;;;;;;5077227;28;20040;-64
2024/01/24 09:37:11;;;;;;;20.50;2.67;;;8.90;99.90;;;;;;5071629;28;20048;-63
2024/01/24 09:39:38;;;;;;;31.25;4.60;;;8.90;99.90;;;;;;5070455;28;20045;-67
2024/01/24 09:42:18;;;;;;;22.25;2.80;;;8.80;99.90;;;;;;5069769;28;20508;-70
2024/01/24 09:44:51;;;;;;;13.43;2.33;;;8.90;99.90;;;;;;5104898;28;20055;-72
2024/01/24 09:47:22;;;;;;;23.98;3.90;;;8.90;99.90;;;;;;5098494;28;20066;-68
2024/01/24 09:49:50;;;;;;;23.85;2.80;;;9.00;99.90;;;;;;5088121;28;20044;-63
2024/01/24 09:52:24;;;;;;;27.83;3.50;;;9.00;99.90;;;;;;5087844;28;20063;-62
2024/01/24 09:54:57;;;;;;;20.23;3.38;;;9.10;99.90;;;;;;5069818;28;20480;-63
2024/01/24 09:57:26;;;;;;;18.55;3.88;;;9.10;99.90;;;;;;5077734;28;20411;-63
2024/01/24 09:59:54;;;;;;;26.35;3.22;;;9.10;99.90;;;;;;5086772;28;20044;-63
2024/01/24 10:02:25;;;;;;;24.08;3.33;;;9.10;99.90;;;;;;5088951;28;20050;-63
2024/01/24 10:04:54;;;;;;;24.10;3.05;;;9.10;99.90;;;;;;5087211;28;20044;-62
2024/01/24 10:07:21;;;;;;;24.13;3.90;;;9.10;99.90;;;;;;5087426;28;20044;-62
2024/01/24 10:10:05;;;;;;;20.55;2.53;;;9.10;99.90;;;;;;5066903;28;20044;-63
2024/01/24 10:12:34;;;;;;;18.25;3.40;;;9.20;99.90;;;;;;5069216;28;20044;-63
2024/01/24 10:15:02;;;;;;;18.30;3.17;;;9.20;99.90;;;;;;5104050;28;20437;-62
2024/01/24 10:17:31;;;;;;;18.77;2.57;;;9.20;99.90;;;;;;5095166;28;20048;-65
2024/01/24 10:19:59;;;;;;;16.63;2.67;;;9.20;99.90;;;;;;5087609;28;20392;-65
2024/01/24 10:22:28;;;;;;;17.27;4.38;;;9.20;99.90;;;;;;5087347;28;20044;-70
2024/01/24 10:24:56;;;;;;;27.73;4.93;;;9.20;99.90;;;;;;5068877;28;20439;-72
2024/01/24 10:27:26;;;;;;;18.98;2.83;;;9.30;99.90;;;;;;5080076;28;20040;-66
2024/01/24 10:29:56;;;;;;;27.77;5.10;;;9.40;99.90;;;;;;5089394;28;20058;-68
2024/01/24 10:32:24;;;;;;;25.17;3.72;;;9.40;99.90;;;;;;5095874;28;20055;-70
2024/01/24 10:34:51;;;;;;;21.80;3.83;;;9.50;99.90;;;;;;5105551;28;20596;-68
2024/01/24 10:37:20;;;;;;;18.48;3.38;;;9.50;99.90;;;;;;5083505;28;20052;-65
2024/01/24 10:39:53;;;;;;;25.23;3.60;;;9.50;99.90;;;;;;5074793;28;20053;-74
2024/01/24 10:42:28;;;;;;;25.25;4.13;;;9.60;99.90;;;;;;5069995;28;20052;-67
2024/01/24 10:44:59;;;;;;;15.85;3.33;;;9.60;99.90;;;;;;5087049;28;20048;-64
2024/01/24 10:47:27;;;;;;;26.52;2.83;;;9.70;99.90;;;;;;5090251;28;20051;-66
2024/01/24 10:50:04;;;;;;;15.68;2.78;;;9.70;99.90;;;;;;5073236;28;20511;-64
2024/01/24 10:52:34;;;;;;;22.88;3.42;;;9.80;99.90;;;;;;5085694;28;20056;-65
2024/01/24 10:55:06;;;;;;;21.90;4.00;;;9.90;99.90;;;;;;5071842;28;20047;-64
2024/01/24 10:57:34;;;;;;;26.73;4.03;;;9.90;99.90;;;;;;5080678;28;20059;-65
2024/01/24 11:00:10;;;;;;;22.20;3.97;;;10.00;99.90;;;;;;5090288;28;20408;-64
2024/01/24 11:02:41;;;;;;;19.60;3.78;;;10.10;99.90;;;;;;5090469;28;20405;-68
2024/01/24 11:05:27;;;;;;;20.02;2.58;;;10.10;99.90;;;;;;5088095;28;20044;-65
2024/01/24 11:08:16;;;;;;;20.40;3.40;;;10.20;99.90;;;;;;5087396;28;20043;-66
2024/01/24 11:10:46;;;;;;;34.15;4.88;;;10.20;99.90;;;;;;5085626;28;20056;-63
2024/01/24 11:13:17;;;;;;;22.88;4.30;;;10.30;99.90;;;;;;5080269;28;20079;-62
2024/01/24 11:15:46;;;;;;;27.90;3.75;;;10.20;99.90;;;;;;5085903;28;20067;-63
2024/01/24 11:18:22;;;;;;;21.40;2.65;;;10.20;99.90;;;;;;5085350;28;20071;-64
2024/01/24 11:20:53;;;;;;;22.60;3.45;;;10.20;99.90;;;;;;5090070;28;20534;-63
2024/01/24 11:23:40;;;;;;;25.00;7.05;;;10.20;99.90;;;;;;5087735;28;20055;-63
2024/01/24 11:26:10;;;;;;;25.30;3.63;;;10.10;99.90;;;;;;5085195;28;20048;-63
2024/01/24 11:28:38;;;;;;;29.55;3.22;;;10.10;99.90;;;;;;5088985;28;20450;-64
2024/01/24 11:31:08;;;;;;;25.02;3.60;;;10.10;99.90;;;;;;5079938;28;20032;-62
2024/01/24 11:33:36;;;;;;;22.02;3.15;;;10.10;99.90;;;;;;5083748;28;20052;-63
2024/01/24 11:36:12;;;;;;;15.43;2.28;;;10.10;99.90;;;;;;5089610;28;20044;-66
2024/01/24 11:38:40;;;;;;;28.17;3.92;;;10.10;99.90;;;;;;5087570;28;20067;-67
2024/01/24 11:41:24;;;;;;;30.38;4.30;;;10.00;99.90;;;;;;5069207;28;20048;-63
2024/01/24 11:43:52;;;;;;;20.15;3.90;;;10.10;99.90;;;;;;5085255;28;20040;-63
2024/01/24 11:46:21;;;;;;;26.45;3.67;;;10.10;99.90;;;;;;5081630;28;20044;-63
2024/01/24 11:48:50;;;;;;;21.13;3.45;;;10.10;99.90;;;;;;5097149;28;20537;-63
2024/01/24 11:51:18;;;;;;;24.20;3.72;;;10.10;99.90;;;;;;5102967;28;20048;-63
2024/01/24 11:53:46;;;;;;;26.60;4.10;;;10.00;99.90;;;;;;5092598;28;20508;-63
2024/01/24 11:56:14;;;;;;;27.58;3.05;;;10.10;99.90;;;;;;5069224;28;20396;-71
2024/01/24 11:58:42;;;;;;;30.73;3.78;;;10.10;99.90;;;;;;5101184;28;20043;-74
2024/01/24 12:01:10;;;;;;;29.17;3.70;;;10.10;99.90;;;;;;5091692;28;20040;-74
2024/01/24 12:03:47;;;;;;;19.75;2.75;;;10.10;99.90;;;;;;5102162;28;20040;-75
2024/01/24 12:06:16;;;;;;;29.88;4.00;;;10.20;99.90;;;;;;5089288;28;20507;-71
2024/01/24 12:08:45;;;;;;;25.15;3.40;;;10.20;99.90;;;;;;5086601;28;20051;-65
2024/01/24 12:11:17;;;;;;;20.50;2.88;;;10.20;99.90;;;;;;5068659;28;20051;-66
2024/01/24 12:13:46;;;;;;;23.00;3.40;;;10.20;99.90;;;;;;5090378;28;20056;-70
2024/01/24 12:16:14;;;;;;;25.40;3.78;;;10.30;99.90;;;;;;5087615;28;20047;-74
2024/01/24 12:18:42;;;;;;;26.25;3.53;;;10.20;99.90;;;;;;5100311;28;20395;-72
2024/01/24 12:21:11;;;;;;;36.13;3.13;;;10.30;99.90;;;;;;5109295;28;20036;-73
2024/01/24 12:23:40;;;;;;;33.70;4.68;;;10.30;99.90;;;;;;5101416;28;20063;-69
2024/01/24 12:26:07;;;;;;;16.63;3.35;;;10.30;99.90;;;;;;5080958;28;20048;-65
2024/01/24 12:28:35;;;;;;;23.73;3.35;;;10.30;99.90;;;;;;5088260;28;20048;-64
2024/01/24 12:31:04;;;;;;;23.58;3.33;;;10.20;99.90;;;;;;5088960;28;20449;-63
2024/01/24 12:33:33;;;;;;;23.25;3.53;;;10.20;99.90;;;;;;5088879;28;20062;-63
2024/01/24 12:36:04;;;;;;;;;;;10.20;99.90;;;;;;5089148;28;20055;-63
2024/01/24 12:38:36;;;;;;;29.52;5.10;;;10.20;99.90;;;;;;5085918;28;20363;-62
2024/01/24 12:41:04;;;;;;;26.17;4.43;;;10.20;99.90;;;;;;5086646;28;20096;-63
2024/01/24 12:43:32;;;;;;;23.85;3.60;;;10.20;99.90;;;;;;5083717;28;20051;-73
2024/01/24 12:46:07;;;;;;;20.95;3.38;;;10.20;99.90;;;;;;5087408;28;20044;-69
2024/01/24 12:48:36;;;;;;;29.58;4.35;;;10.20;99.90;;;;;;5087326;28;20052;-72
2024/01/24 12:51:06;;;;;;;24.17;3.80;;;10.20;99.90;;;;;;5085095;28;20765;-64